sensor_id;sensor_type;location;lat;lon;timestamp;P1;durP1;ratioP1;P2;durP2;ratioP2
46721;SDS011;32455;43.430;23.136;2023-11-22T00:02:15;12.85;;;8.07;;
46721;SDS011;32455;43.430;23.136;2023-11-22T00:05:00;10.45;;;7.75;;
46721;SDS011;32455;43.430;23.136;2023-11-22T00:07:46;11.07;;;7.55;;
46721;SDS011;32455;43.430;23.136;2023-11-22T00:10:32;11.18;;;7.43;;
46721;SDS011;32455;43.430;23.136;2023-11-22T00:13:18;14.32;;;7.53;;
46721;SDS011;32455;43.430;23.136;2023-11-22T00:16:03;10.95;;;7.57;;
46721;SDS011;32455;43.430;23.136;2023-11-22T00:18:49;10.68;;;6.85;;
46721;SDS011;32455;43.430;23.136;2023-11-22T00:21:34;10.38;;;7.50;;
46721;SDS011;32455;43.430;23.136;2023-11-22T00:24:20;11.25;;;7.32;;
46721;SDS011;32455;43.430;23.136;2023-11-22T00:27:06;11.65;;;7.65;;
46721;SDS011;32455;43.430;23.136;2023-11-22T00:29:51;10.68;;;7.50;;
46721;SDS011;32455;43.430;23.136;2023-11-22T00:32:37;11.75;;;7.47;;
46721;SDS011;32455;43.430;23.136;2023-11-22T00:35:22;10.88;;;7.57;;
46721;SDS011;32455;43.430;23.136;2023-11-22T00:38:08;10.30;;;6.70;;
46721;SDS011;32455;43.430;23.136;2023-11-22T00:40:53;11.10;;;7.10;;
46721;SDS011;32455;43.430;23.136;2023-11-22T00:43:38;10.90;;;7.40;;
46721;SDS011;32455;43.430;23.136;2023-11-22T00:46:23;11.90;;;7.22;;
46721;SDS011;32455;43.430;23.136;2023-11-22T00:49:08;9.82;;;6.93;;
46721;SDS011;32455;43.430;23.136;2023-11-22T00:51:53;10.55;;;6.95;;
46721;SDS011;32455;43.430;23.136;2023-11-22T00:54:39;10.60;;;7.38;;
46721;SDS011;32455;43.430;23.136;2023-11-22T00:57:24;8.25;;;6.65;;
46721;SDS011;32455;43.430;23.136;2023-11-22T01:00:11;11.23;;;7.57;;
46721;SDS011;32455;43.430;23.136;2023-11-22T01:02:57;9.52;;;6.63;;
46721;SDS011;32455;43.430;23.136;2023-11-22T01:05:42;10.73;;;6.88;;
46721;SDS011;32455;43.430;23.136;2023-11-22T01:08:28;7.30;;;5.75;;
46721;SDS011;32455;43.430;23.136;2023-11-22T01:11:13;8.10;;;6.22;;
46721;SDS011;32455;43.430;23.136;2023-11-22T01:13:59;6.82;;;5.80;;
46721;SDS011;32455;43.430;23.136;2023-11-22T01:16:44;12.20;;;6.68;;
46721;SDS011;32455;43.430;23.136;2023-11-22T01:19:29;9.90;;;6.45;;
46721;SDS011;32455;43.430;23.136;2023-11-22T01:22:14;8.82;;;6.30;;
46721;SDS011;32455;43.430;23.136;2023-11-22T01:25:00;8.52;;;6.25;;
46721;SDS011;32455;43.430;23.136;2023-11-22T01:27:45;11.05;;;6.18;;
46721;SDS011;32455;43.430;23.136;2023-11-22T01:30:30;9.25;;;6.43;;
46721;SDS011;32455;43.430;23.136;2023-11-22T01:33:15;9.60;;;6.30;;
46721;SDS011;32455;43.430;23.136;2023-11-22T01:36:01;8.25;;;5.95;;
46721;SDS011;32455;43.430;23.136;2023-11-22T01:38:47;7.35;;;5.88;;
46721;SDS011;32455;43.430;23.136;2023-11-22T01:41:32;7.18;;;5.63;;
46721;SDS011;32455;43.430;23.136;2023-11-22T01:44:17;8.57;;;6.35;;
46721;SDS011;32455;43.430;23.136;2023-11-22T01:47:03;8.40;;;5.85;;
46721;SDS011;32455;43.430;23.136;2023-11-22T01:49:49;6.75;;;5.57;;
46721;SDS011;32455;43.430;23.136;2023-11-22T01:52:35;8.68;;;6.13;;
46721;SDS011;32455;43.430;23.136;2023-11-22T01:55:21;6.55;;;5.60;;
46721;SDS011;32455;43.430;23.136;2023-11-22T01:58:06;7.75;;;5.57;;
46721;SDS011;32455;43.430;23.136;2023-11-22T02:00:52;8.00;;;5.68;;
46721;SDS011;32455;43.430;23.136;2023-11-22T02:03:38;8.40;;;5.68;;
46721;SDS011;32455;43.430;23.136;2023-11-22T02:06:24;7.45;;;5.60;;
46721;SDS011;32455;43.430;23.136;2023-11-22T02:09:09;8.20;;;5.60;;
46721;SDS011;32455;43.430;23.136;2023-11-22T02:11:57;6.80;;;5.60;;
46721;SDS011;32455;43.430;23.136;2023-11-22T02:14:43;7.80;;;5.43;;
46721;SDS011;32455;43.430;23.136;2023-11-22T02:17:28;7.70;;;6.35;;
46721;SDS011;32455;43.430;23.136;2023-11-22T02:20:14;8.50;;;5.65;;
46721;SDS011;32455;43.430;23.136;2023-11-22T02:23:08;7.45;;;5.63;;
46721;SDS011;32455;43.430;23.136;2023-11-22T02:25:55;8.23;;;5.50;;
46721;SDS011;32455;43.430;23.136;2023-11-22T02:28:41;8.60;;;5.80;;
46721;SDS011;32455;43.430;23.136;2023-11-22T02:31:26;7.65;;;5.53;;
46721;SDS011;32455;43.430;23.136;2023-11-22T02:34:13;6.88;;;5.47;;
46721;SDS011;32455;43.430;23.136;2023-11-22T02:37:00;7.07;;;5.72;;
46721;SDS011;32455;43.430;23.136;2023-11-22T02:39:49;6.50;;;5.25;;
46721;SDS011;32455;43.430;23.136;2023-11-22T02:42:42;7.20;;;5.63;;
46721;SDS011;32455;43.430;23.136;2023-11-22T02:45:28;7.80;;;5.25;;
46721;SDS011;32455;43.430;23.136;2023-11-22T02:48:14;6.95;;;5.07;;
46721;SDS011;32455;43.430;23.136;2023-11-22T02:50:59;8.60;;;5.28;;
46721;SDS011;32455;43.430;23.136;2023-11-22T02:53:45;6.38;;;4.97;;
46721;SDS011;32455;43.430;23.136;2023-11-22T02:56:31;6.25;;;4.22;;
46721;SDS011;32455;43.430;23.136;2023-11-22T02:59:16;5.25;;;4.50;;
46721;SDS011;32455;43.430;23.136;2023-11-22T03:02:01;5.55;;;4.30;;
46721;SDS011;32455;43.430;23.136;2023-11-22T03:04:46;6.85;;;4.70;;
46721;SDS011;32455;43.430;23.136;2023-11-22T03:07:32;5.57;;;4.85;;
46721;SDS011;32455;43.430;23.136;2023-11-22T03:10:17;5.03;;;4.03;;
46721;SDS011;32455;43.430;23.136;2023-11-22T03:13:03;5.93;;;4.63;;
46721;SDS011;32455;43.430;23.136;2023-11-22T03:15:48;5.35;;;3.92;;
46721;SDS011;32455;43.430;23.136;2023-11-22T03:18:34;6.65;;;4.45;;
46721;SDS011;32455;43.430;23.136;2023-11-22T03:21:20;5.30;;;4.15;;
46721;SDS011;32455;43.430;23.136;2023-11-22T03:24:05;4.93;;;3.95;;
46721;SDS011;32455;43.430;23.136;2023-11-22T03:26:49;4.57;;;4.15;;
46721;SDS011;32455;43.430;23.136;2023-11-22T03:29:34;5.15;;;4.50;;
46721;SDS011;32455;43.430;23.136;2023-11-22T03:32:19;6.00;;;4.28;;
46721;SDS011;32455;43.430;23.136;2023-11-22T03:35:08;5.80;;;4.45;;
46721;SDS011;32455;43.430;23.136;2023-11-22T03:37:53;4.68;;;3.90;;
46721;SDS011;32455;43.430;23.136;2023-11-22T03:40:38;5.40;;;4.35;;
46721;SDS011;32455;43.430;23.136;2023-11-22T03:43:24;5.40;;;3.75;;
46721;SDS011;32455;43.430;23.136;2023-11-22T03:46:09;5.55;;;4.07;;
46721;SDS011;32455;43.430;23.136;2023-11-22T03:48:55;3.75;;;3.30;;
46721;SDS011;32455;43.430;23.136;2023-11-22T03:51:41;4.82;;;3.72;;
46721;SDS011;32455;43.430;23.136;2023-11-22T03:54:27;5.70;;;3.97;;
46721;SDS011;32455;43.430;23.136;2023-11-22T03:57:12;5.22;;;3.80;;
46721;SDS011;32455;43.430;23.136;2023-11-22T03:59:58;4.35;;;3.67;;
46721;SDS011;32455;43.430;23.136;2023-11-22T04:02:44;4.25;;;3.25;;
46721;SDS011;32455;43.430;23.136;2023-11-22T04:05:29;4.10;;;3.28;;
46721;SDS011;32455;43.430;23.136;2023-11-22T04:08:14;4.10;;;3.55;;
46721;SDS011;32455;43.430;23.136;2023-11-22T04:11:00;5.15;;;4.03;;
46721;SDS011;32455;43.430;23.136;2023-11-22T04:13:46;4.63;;;3.78;;
46721;SDS011;32455;43.430;23.136;2023-11-22T04:16:32;4.68;;;3.97;;
46721;SDS011;32455;43.430;23.136;2023-11-22T04:19:18;4.88;;;3.90;;
46721;SDS011;32455;43.430;23.136;2023-11-22T04:22:03;5.28;;;3.60;;
46721;SDS011;32455;43.430;23.136;2023-11-22T04:24:49;5.05;;;4.20;;
46721;SDS011;32455;43.430;23.136;2023-11-22T04:27:35;3.80;;;3.25;;
46721;SDS011;32455;43.430;23.136;2023-11-22T04:30:21;4.22;;;3.75;;
46721;SDS011;32455;43.430;23.136;2023-11-22T04:33:07;4.15;;;3.25;;
46721;SDS011;32455;43.430;23.136;2023-11-22T04:35:53;3.97;;;3.60;;
46721;SDS011;32455;43.430;23.136;2023-11-22T04:38:38;4.85;;;3.58;;
46721;SDS011;32455;43.430;23.136;2023-11-22T04:41:24;3.60;;;3.30;;
46721;SDS011;32455;43.430;23.136;2023-11-22T04:44:10;3.28;;;2.97;;
46721;SDS011;32455;43.430;23.136;2023-11-22T04:46:55;3.47;;;2.88;;
46721;SDS011;32455;43.430;23.136;2023-11-22T04:49:41;2.92;;;2.53;;
46721;SDS011;32455;43.430;23.136;2023-11-22T04:52:26;3.03;;;2.72;;
46721;SDS011;32455;43.430;23.136;2023-11-22T04:55:11;3.53;;;2.88;;
46721;SDS011;32455;43.430;23.136;2023-11-22T04:57:57;3.17;;;2.88;;
46721;SDS011;32455;43.430;23.136;2023-11-22T05:00:42;3.25;;;2.90;;
46721;SDS011;32455;43.430;23.136;2023-11-22T05:03:27;2.95;;;2.75;;
46721;SDS011;32455;43.430;23.136;2023-11-22T05:06:12;2.88;;;2.63;;
46721;SDS011;32455;43.430;23.136;2023-11-22T05:08:57;2.72;;;2.45;;
46721;SDS011;32455;43.430;23.136;2023-11-22T05:11:43;3.13;;;2.47;;
46721;SDS011;32455;43.430;23.136;2023-11-22T05:14:29;2.55;;;2.35;;
46721;SDS011;32455;43.430;23.136;2023-11-22T05:17:14;3.00;;;2.33;;
46721;SDS011;32455;43.430;23.136;2023-11-22T05:20:00;4.80;;;2.28;;
46721;SDS011;32455;43.430;23.136;2023-11-22T05:22:45;3.75;;;2.20;;
46721;SDS011;32455;43.430;23.136;2023-11-22T05:25:30;2.50;;;2.30;;
46721;SDS011;32455;43.430;23.136;2023-11-22T05:28:16;2.38;;;2.17;;
46721;SDS011;32455;43.430;23.136;2023-11-22T05:31:01;2.90;;;2.58;;
46721;SDS011;32455;43.430;23.136;2023-11-22T05:33:47;2.22;;;2.03;;
46721;SDS011;32455;43.430;23.136;2023-11-22T05:36:32;2.72;;;2.53;;
46721;SDS011;32455;43.430;23.136;2023-11-22T05:39:17;2.53;;;2.33;;
46721;SDS011;32455;43.430;23.136;2023-11-22T05:42:03;3.38;;;2.25;;
46721;SDS011;32455;43.430;23.136;2023-11-22T05:44:48;2.50;;;2.30;;
46721;SDS011;32455;43.430;23.136;2023-11-22T05:47:34;1.73;;;1.63;;
46721;SDS011;32455;43.430;23.136;2023-11-22T05:50:20;3.17;;;2.83;;
46721;SDS011;32455;43.430;23.136;2023-11-22T05:53:05;3.58;;;3.00;;
46721;SDS011;32455;43.430;23.136;2023-11-22T05:55:51;3.70;;;2.85;;
46721;SDS011;32455;43.430;23.136;2023-11-22T05:58:37;2.78;;;2.58;;
46721;SDS011;32455;43.430;23.136;2023-11-22T06:01:23;3.20;;;2.50;;
46721;SDS011;32455;43.430;23.136;2023-11-22T06:04:08;2.30;;;2.10;;
46721;SDS011;32455;43.430;23.136;2023-11-22T06:06:54;2.05;;;1.92;;
46721;SDS011;32455;43.430;23.136;2023-11-22T06:09:39;4.93;;;2.17;;
46721;SDS011;32455;43.430;23.136;2023-11-22T06:12:24;3.33;;;2.60;;
46721;SDS011;32455;43.430;23.136;2023-11-22T06:15:10;2.55;;;2.35;;
46721;SDS011;32455;43.430;23.136;2023-11-22T06:17:56;2.65;;;2.40;;
46721;SDS011;32455;43.430;23.136;2023-11-22T06:20:41;2.50;;;1.85;;
46721;SDS011;32455;43.430;23.136;2023-11-22T06:23:27;2.38;;;2.17;;
46721;SDS011;32455;43.430;23.136;2023-11-22T06:26:13;2.83;;;2.20;;
46721;SDS011;32455;43.430;23.136;2023-11-22T06:28:59;3.40;;;2.20;;
46721;SDS011;32455;43.430;23.136;2023-11-22T06:31:45;2.05;;;1.85;;
46721;SDS011;32455;43.430;23.136;2023-11-22T06:34:30;2.30;;;2.10;;
46721;SDS011;32455;43.430;23.136;2023-11-22T06:37:15;2.10;;;2.00;;
46721;SDS011;32455;43.430;23.136;2023-11-22T06:40:00;2.20;;;2.00;;
46721;SDS011;32455;43.430;23.136;2023-11-22T06:42:45;1.90;;;1.80;;
46721;SDS011;32455;43.430;23.136;2023-11-22T06:45:30;1.70;;;1.48;;
46721;SDS011;32455;43.430;23.136;2023-11-22T06:48:16;2.30;;;2.08;;
46721;SDS011;32455;43.430;23.136;2023-11-22T06:51:02;2.20;;;2.00;;
46721;SDS011;32455;43.430;23.136;2023-11-22T06:53:47;2.35;;;2.15;;
46721;SDS011;32455;43.430;23.136;2023-11-22T06:56:32;2.20;;;1.92;;
46721;SDS011;32455;43.430;23.136;2023-11-22T06:59:17;1.90;;;1.80;;
46721;SDS011;32455;43.430;23.136;2023-11-22T07:02:03;2.03;;;1.80;;
46721;SDS011;32455;43.430;23.136;2023-11-22T07:04:49;1.90;;;1.73;;
46721;SDS011;32455;43.430;23.136;2023-11-22T07:07:34;2.10;;;1.90;;
46721;SDS011;32455;43.430;23.136;2023-11-22T07:10:20;2.28;;;2.08;;
46721;SDS011;32455;43.430;23.136;2023-11-22T07:13:06;1.95;;;1.77;;
46721;SDS011;32455;43.430;23.136;2023-11-22T07:15:52;2.20;;;2.00;;
46721;SDS011;32455;43.430;23.136;2023-11-22T07:18:38;1.65;;;1.55;;
46721;SDS011;32455;43.430;23.136;2023-11-22T07:21:25;2.28;;;1.63;;
46721;SDS011;32455;43.430;23.136;2023-11-22T07:24:10;1.67;;;1.58;;
46721;SDS011;32455;43.430;23.136;2023-11-22T07:26:59;2.30;;;2.13;;
46721;SDS011;32455;43.430;23.136;2023-11-22T07:29:46;4.18;;;3.30;;
46721;SDS011;32455;43.430;23.136;2023-11-22T07:32:32;4.60;;;3.70;;
46721;SDS011;32455;43.430;23.136;2023-11-22T07:35:17;6.25;;;4.97;;
46721;SDS011;32455;43.430;23.136;2023-11-22T07:38:04;5.65;;;4.32;;
46721;SDS011;32455;43.430;23.136;2023-11-22T07:40:50;6.68;;;5.13;;
46721;SDS011;32455;43.430;23.136;2023-11-22T07:43:35;7.03;;;4.65;;
46721;SDS011;32455;43.430;23.136;2023-11-22T07:46:21;5.13;;;4.50;;
46721;SDS011;32455;43.430;23.136;2023-11-22T07:49:05;6.72;;;4.95;;
46721;SDS011;32455;43.430;23.136;2023-11-22T07:51:51;8.40;;;5.97;;
46721;SDS011;32455;43.430;23.136;2023-11-22T07:54:37;10.18;;;6.00;;
46721;SDS011;32455;43.430;23.136;2023-11-22T07:57:22;10.13;;;6.55;;
46721;SDS011;32455;43.430;23.136;2023-11-22T08:00:08;11.13;;;6.82;;
46721;SDS011;32455;43.430;23.136;2023-11-22T08:02:55;11.63;;;7.57;;
46721;SDS011;32455;43.430;23.136;2023-11-22T08:05:42;9.13;;;6.25;;
46721;SDS011;32455;43.430;23.136;2023-11-22T08:08:30;10.43;;;6.93;;
46721;SDS011;32455;43.430;23.136;2023-11-22T08:11:16;13.05;;;7.60;;
46721;SDS011;32455;43.430;23.136;2023-11-22T08:14:03;11.15;;;6.53;;
46721;SDS011;32455;43.430;23.136;2023-11-22T08:16:48;11.55;;;7.55;;
46721;SDS011;32455;43.430;23.136;2023-11-22T08:19:33;10.35;;;6.53;;
46721;SDS011;32455;43.430;23.136;2023-11-22T08:22:17;16.38;;;7.70;;
46721;SDS011;32455;43.430;23.136;2023-11-22T08:25:03;17.98;;;11.57;;
46721;SDS011;32455;43.430;23.136;2023-11-22T08:27:48;12.13;;;7.18;;
46721;SDS011;32455;43.430;23.136;2023-11-22T08:30:34;9.63;;;5.93;;
46721;SDS011;32455;43.430;23.136;2023-11-22T08:33:22;8.05;;;5.32;;
46721;SDS011;32455;43.430;23.136;2023-11-22T08:36:08;8.25;;;6.18;;
46721;SDS011;32455;43.430;23.136;2023-11-22T08:38:54;8.93;;;5.60;;
46721;SDS011;32455;43.430;23.136;2023-11-22T08:41:40;8.00;;;5.57;;
46721;SDS011;32455;43.430;23.136;2023-11-22T08:44:25;11.88;;;6.30;;
46721;SDS011;32455;43.430;23.136;2023-11-22T08:47:11;12.85;;;7.68;;
46721;SDS011;32455;43.430;23.136;2023-11-22T08:49:56;11.45;;;6.97;;
46721;SDS011;32455;43.430;23.136;2023-11-22T08:52:42;15.55;;;7.90;;
46721;SDS011;32455;43.430;23.136;2023-11-22T08:55:29;11.88;;;6.90;;
46721;SDS011;32455;43.430;23.136;2023-11-22T08:58:15;9.93;;;6.82;;
46721;SDS011;32455;43.430;23.136;2023-11-22T09:01:00;9.07;;;6.10;;
46721;SDS011;32455;43.430;23.136;2023-11-22T09:03:48;8.05;;;5.55;;
46721;SDS011;32455;43.430;23.136;2023-11-22T09:06:35;9.80;;;6.78;;
46721;SDS011;32455;43.430;23.136;2023-11-22T09:09:20;7.70;;;5.20;;
46721;SDS011;32455;43.430;23.136;2023-11-22T09:12:08;7.53;;;5.28;;
46721;SDS011;32455;43.430;23.136;2023-11-22T09:14:57;7.40;;;5.95;;
46721;SDS011;32455;43.430;23.136;2023-11-22T09:17:43;10.02;;;5.90;;
46721;SDS011;32455;43.430;23.136;2023-11-22T09:20:28;8.50;;;5.57;;
46721;SDS011;32455;43.430;23.136;2023-11-22T09:23:14;8.90;;;6.00;;
46721;SDS011;32455;43.430;23.136;2023-11-22T09:26:00;8.27;;;5.28;;
46721;SDS011;32455;43.430;23.136;2023-11-22T09:28:45;11.43;;;6.28;;
46721;SDS011;32455;43.430;23.136;2023-11-22T09:31:31;8.98;;;5.32;;
46721;SDS011;32455;43.430;23.136;2023-11-22T09:34:17;6.90;;;4.65;;
46721;SDS011;32455;43.430;23.136;2023-11-22T09:37:16;7.53;;;5.13;;
46721;SDS011;32455;43.430;23.136;2023-11-22T09:40:01;8.43;;;4.90;;
46721;SDS011;32455;43.430;23.136;2023-11-22T09:42:53;8.30;;;4.90;;
46721;SDS011;32455;43.430;23.136;2023-11-22T09:45:40;6.63;;;4.75;;
46721;SDS011;32455;43.430;23.136;2023-11-22T09:48:25;6.22;;;4.80;;
46721;SDS011;32455;43.430;23.136;2023-11-22T09:54:07;5.95;;;4.80;;
46721;SDS011;32455;43.430;23.136;2023-11-22T09:56:58;7.00;;;4.57;;
46721;SDS011;32455;43.430;23.136;2023-11-22T09:59:46;7.10;;;5.28;;
46721;SDS011;32455;43.430;23.136;2023-11-22T10:02:37;5.75;;;4.00;;
46721;SDS011;32455;43.430;23.136;2023-11-22T10:05:23;7.03;;;4.88;;
46721;SDS011;32455;43.430;23.136;2023-11-22T10:08:10;8.02;;;4.53;;
46721;SDS011;32455;43.430;23.136;2023-11-22T10:10:55;10.05;;;5.28;;
46721;SDS011;32455;43.430;23.136;2023-11-22T10:13:41;6.53;;;4.32;;
46721;SDS011;32455;43.430;23.136;2023-11-22T10:16:26;7.22;;;5.03;;
46721;SDS011;32455;43.430;23.136;2023-11-22T10:19:11;5.63;;;4.00;;
46721;SDS011;32455;43.430;23.136;2023-11-22T10:22:05;9.18;;;4.60;;
46721;SDS011;32455;43.430;23.136;2023-11-22T10:24:53;6.05;;;4.65;;
46721;SDS011;32455;43.430;23.136;2023-11-22T10:27:46;6.73;;;4.97;;
46721;SDS011;32455;43.430;23.136;2023-11-22T10:30:35;5.80;;;4.22;;
46721;SDS011;32455;43.430;23.136;2023-11-22T10:33:19;5.28;;;4.13;;
46721;SDS011;32455;43.430;23.136;2023-11-22T10:36:07;5.32;;;3.78;;
46721;SDS011;32455;43.430;23.136;2023-11-22T10:38:53;5.85;;;4.40;;
46721;SDS011;32455;43.430;23.136;2023-11-22T10:41:40;4.32;;;3.88;;
46721;SDS011;32455;43.430;23.136;2023-11-22T10:44:26;5.40;;;3.70;;
46721;SDS011;32455;43.430;23.136;2023-11-22T10:47:12;4.97;;;4.00;;
46721;SDS011;32455;43.430;23.136;2023-11-22T10:50:03;6.72;;;4.32;;
46721;SDS011;32455;43.430;23.136;2023-11-22T10:52:49;5.75;;;3.97;;
46721;SDS011;32455;43.430;23.136;2023-11-22T10:55:44;5.57;;;3.88;;
46721;SDS011;32455;43.430;23.136;2023-11-22T11:01:21;5.15;;;4.03;;
46721;SDS011;32455;43.430;23.136;2023-11-22T11:04:11;5.45;;;4.30;;
46721;SDS011;32455;43.430;23.136;2023-11-22T11:07:04;5.47;;;3.80;;
46721;SDS011;32455;43.430;23.136;2023-11-22T11:09:55;5.03;;;3.72;;
46721;SDS011;32455;43.430;23.136;2023-11-22T11:12:42;7.90;;;4.50;;
46721;SDS011;32455;43.430;23.136;2023-11-22T11:15:29;6.00;;;5.30;;
46721;SDS011;32455;43.430;23.136;2023-11-22T11:18:15;6.80;;;4.68;;
46721;SDS011;32455;43.430;23.136;2023-11-22T11:21:07;5.63;;;3.95;;
46721;SDS011;32455;43.430;23.136;2023-11-22T11:23:53;5.28;;;4.60;;
46721;SDS011;32455;43.430;23.136;2023-11-22T11:26:50;6.15;;;4.47;;
46721;SDS011;32455;43.430;23.136;2023-11-22T11:29:38;5.18;;;4.25;;
46721;SDS011;32455;43.430;23.136;2023-11-22T11:32:31;6.25;;;4.40;;
46721;SDS011;32455;43.430;23.136;2023-11-22T11:35:17;5.57;;;4.80;;
46721;SDS011;32455;43.430;23.136;2023-11-22T11:38:03;6.88;;;4.75;;
46721;SDS011;32455;43.430;23.136;2023-11-22T11:40:49;6.75;;;5.03;;
46721;SDS011;32455;43.430;23.136;2023-11-22T11:43:42;6.63;;;4.70;;
46721;SDS011;32455;43.430;23.136;2023-11-22T11:46:30;6.43;;;4.85;;
46721;SDS011;32455;43.430;23.136;2023-11-22T11:49:15;6.93;;;5.03;;
46721;SDS011;32455;43.430;23.136;2023-11-22T11:52:00;6.07;;;4.78;;
46721;SDS011;32455;43.430;23.136;2023-11-22T11:54:46;5.35;;;4.22;;
46721;SDS011;32455;43.430;23.136;2023-11-22T11:57:32;5.60;;;4.53;;
46721;SDS011;32455;43.430;23.136;2023-11-22T12:00:17;6.65;;;4.68;;
46721;SDS011;32455;43.430;23.136;2023-11-22T12:03:04;5.82;;;3.78;;
46721;SDS011;32455;43.430;23.136;2023-11-22T12:05:49;6.70;;;4.53;;
46721;SDS011;32455;43.430;23.136;2023-11-22T12:08:35;8.45;;;4.78;;
46721;SDS011;32455;43.430;23.136;2023-11-22T12:11:23;6.30;;;4.88;;
46721;SDS011;32455;43.430;23.136;2023-11-22T12:14:08;8.00;;;5.15;;
46721;SDS011;32455;43.430;23.136;2023-11-22T12:16:56;6.10;;;4.35;;
46721;SDS011;32455;43.430;23.136;2023-11-22T12:19:44;7.95;;;4.47;;
46721;SDS011;32455;43.430;23.136;2023-11-22T12:22:29;6.30;;;4.60;;
46721;SDS011;32455;43.430;23.136;2023-11-22T12:25:14;6.93;;;4.80;;
46721;SDS011;32455;43.430;23.136;2023-11-22T12:28:00;5.72;;;4.32;;
46721;SDS011;32455;43.430;23.136;2023-11-22T12:30:45;5.88;;;4.75;;
46721;SDS011;32455;43.430;23.136;2023-11-22T12:33:30;6.53;;;4.40;;
46721;SDS011;32455;43.430;23.136;2023-11-22T12:36:16;8.73;;;5.32;;
46721;SDS011;32455;43.430;23.136;2023-11-22T12:39:02;5.90;;;4.88;;
46721;SDS011;32455;43.430;23.136;2023-11-22T12:41:49;6.22;;;4.30;;
46721;SDS011;32455;43.430;23.136;2023-11-22T12:44:51;4.45;;;3.63;;
46721;SDS011;32455;43.430;23.136;2023-11-22T12:47:37;4.05;;;3.28;;
46721;SDS011;32455;43.430;23.136;2023-11-22T12:50:35;6.38;;;4.65;;
46721;SDS011;32455;43.430;23.136;2023-11-22T12:53:25;7.57;;;4.67;;
46721;SDS011;32455;43.430;23.136;2023-11-22T12:56:13;7.63;;;5.28;;
46721;SDS011;32455;43.430;23.136;2023-11-22T12:58:58;9.10;;;5.85;;
46721;SDS011;32455;43.430;23.136;2023-11-22T13:01:44;8.30;;;5.40;;
46721;SDS011;32455;43.430;23.136;2023-11-22T13:04:30;8.10;;;5.85;;
46721;SDS011;32455;43.430;23.136;2023-11-22T13:07:15;5.75;;;4.40;;
46721;SDS011;32455;43.430;23.136;2023-11-22T13:10:00;7.32;;;5.15;;
46721;SDS011;32455;43.430;23.136;2023-11-22T13:12:46;5.70;;;4.60;;
46721;SDS011;32455;43.430;23.136;2023-11-22T13:15:31;6.32;;;4.95;;
46721;SDS011;32455;43.430;23.136;2023-11-22T13:18:17;5.28;;;3.85;;
46721;SDS011;32455;43.430;23.136;2023-11-22T13:21:03;4.55;;;3.85;;
46721;SDS011;32455;43.430;23.136;2023-11-22T13:23:50;4.40;;;3.95;;
46721;SDS011;32455;43.430;23.136;2023-11-22T13:26:35;5.15;;;3.67;;
46721;SDS011;32455;43.430;23.136;2023-11-22T13:29:19;5.07;;;3.78;;
46721;SDS011;32455;43.430;23.136;2023-11-22T13:32:04;4.72;;;3.88;;
46721;SDS011;32455;43.430;23.136;2023-11-22T13:34:51;6.30;;;3.40;;
46721;SDS011;32455;43.430;23.136;2023-11-22T13:37:39;4.35;;;3.63;;
46721;SDS011;32455;43.430;23.136;2023-11-22T13:40:28;3.92;;;2.97;;
46721;SDS011;32455;43.430;23.136;2023-11-22T13:43:16;4.55;;;3.20;;
46721;SDS011;32455;43.430;23.136;2023-11-22T13:46:02;4.20;;;3.75;;
46721;SDS011;32455;43.430;23.136;2023-11-22T13:48:49;3.42;;;2.85;;
46721;SDS011;32455;43.430;23.136;2023-11-22T13:51:34;4.10;;;3.03;;
46721;SDS011;32455;43.430;23.136;2023-11-22T13:54:20;4.38;;;3.00;;
46721;SDS011;32455;43.430;23.136;2023-11-22T13:57:05;3.58;;;3.15;;
46721;SDS011;32455;43.430;23.136;2023-11-22T13:59:51;4.05;;;3.45;;
46721;SDS011;32455;43.430;23.136;2023-11-22T14:02:36;5.78;;;3.70;;
46721;SDS011;32455;43.430;23.136;2023-11-22T14:05:22;4.57;;;3.50;;
46721;SDS011;32455;43.430;23.136;2023-11-22T14:08:08;3.63;;;2.95;;
46721;SDS011;32455;43.430;23.136;2023-11-22T14:10:54;4.15;;;3.05;;
46721;SDS011;32455;43.430;23.136;2023-11-22T14:13:39;3.05;;;2.45;;
46721;SDS011;32455;43.430;23.136;2023-11-22T14:16:25;3.40;;;3.10;;
46721;SDS011;32455;43.430;23.136;2023-11-22T14:19:11;6.78;;;4.38;;
46721;SDS011;32455;43.430;23.136;2023-11-22T14:21:57;5.40;;;4.25;;
46721;SDS011;32455;43.430;23.136;2023-11-22T14:24:43;3.85;;;3.03;;
46721;SDS011;32455;43.430;23.136;2023-11-22T14:27:30;2.88;;;2.67;;
46721;SDS011;32455;43.430;23.136;2023-11-22T14:30:16;5.72;;;2.22;;
46721;SDS011;32455;43.430;23.136;2023-11-22T14:33:02;2.60;;;2.40;;
46721;SDS011;32455;43.430;23.136;2023-11-22T14:35:51;3.17;;;2.42;;
46721;SDS011;32455;43.430;23.136;2023-11-22T14:38:36;4.28;;;2.80;;
46721;SDS011;32455;43.430;23.136;2023-11-22T14:41:21;8.48;;;3.80;;
46721;SDS011;32455;43.430;23.136;2023-11-22T14:44:07;6.82;;;4.38;;
46721;SDS011;32455;43.430;23.136;2023-11-22T14:46:54;4.40;;;2.75;;
46721;SDS011;32455;43.430;23.136;2023-11-22T14:49:39;2.63;;;2.35;;
46721;SDS011;32455;43.430;23.136;2023-11-22T14:52:24;2.42;;;2.22;;
46721;SDS011;32455;43.430;23.136;2023-11-22T14:55:10;2.80;;;2.47;;
46721;SDS011;32455;43.430;23.136;2023-11-22T14:57:56;3.08;;;2.63;;
46721;SDS011;32455;43.430;23.136;2023-11-22T15:00:44;4.82;;;3.28;;
46721;SDS011;32455;43.430;23.136;2023-11-22T15:03:29;4.25;;;3.03;;
46721;SDS011;32455;43.430;23.136;2023-11-22T15:06:16;5.55;;;3.63;;
46721;SDS011;32455;43.430;23.136;2023-11-22T15:09:02;3.22;;;2.92;;
46721;SDS011;32455;43.430;23.136;2023-11-22T15:14:39;3.30;;;3.00;;
46721;SDS011;32455;43.430;23.136;2023-11-22T15:17:24;3.25;;;2.60;;
46721;SDS011;32455;43.430;23.136;2023-11-22T15:20:08;3.53;;;2.45;;
46721;SDS011;32455;43.430;23.136;2023-11-22T15:22:55;3.65;;;2.90;;
46721;SDS011;32455;43.430;23.136;2023-11-22T15:25:41;3.53;;;2.92;;
46721;SDS011;32455;43.430;23.136;2023-11-22T15:28:26;3.08;;;2.42;;
46721;SDS011;32455;43.430;23.136;2023-11-22T15:31:14;3.83;;;2.88;;
46721;SDS011;32455;43.430;23.136;2023-11-22T15:34:00;4.10;;;3.15;;
46721;SDS011;32455;43.430;23.136;2023-11-22T15:36:46;3.20;;;2.67;;
46721;SDS011;32455;43.430;23.136;2023-11-22T15:39:31;5.28;;;2.97;;
46721;SDS011;32455;43.430;23.136;2023-11-22T15:42:16;2.75;;;2.38;;
46721;SDS011;32455;43.430;23.136;2023-11-22T15:45:02;2.78;;;2.47;;
46721;SDS011;32455;43.430;23.136;2023-11-22T15:47:48;3.58;;;2.38;;
46721;SDS011;32455;43.430;23.136;2023-11-22T15:50:33;2.20;;;1.73;;
46721;SDS011;32455;43.430;23.136;2023-11-22T15:53:19;2.67;;;2.20;;
46721;SDS011;32455;43.430;23.136;2023-11-22T15:56:05;2.88;;;2.22;;
46721;SDS011;32455;43.430;23.136;2023-11-22T15:58:53;2.47;;;2.05;;
46721;SDS011;32455;43.430;23.136;2023-11-22T16:01:43;2.67;;;2.35;;
46721;SDS011;32455;43.430;23.136;2023-11-22T16:04:28;3.78;;;3.42;;
46721;SDS011;32455;43.430;23.136;2023-11-22T16:07:13;5.07;;;3.50;;
46721;SDS011;32455;43.430;23.136;2023-11-22T16:09:59;3.50;;;2.90;;
46721;SDS011;32455;43.430;23.136;2023-11-22T16:12:45;3.13;;;2.70;;
46721;SDS011;32455;43.430;23.136;2023-11-22T16:15:31;3.95;;;3.00;;
46721;SDS011;32455;43.430;23.136;2023-11-22T16:18:17;3.05;;;2.72;;
46721;SDS011;32455;43.430;23.136;2023-11-22T16:21:03;3.10;;;2.80;;
46721;SDS011;32455;43.430;23.136;2023-11-22T16:23:48;3.10;;;2.65;;
46721;SDS011;32455;43.430;23.136;2023-11-22T16:26:34;2.42;;;2.25;;
46721;SDS011;32455;43.430;23.136;2023-11-22T16:29:21;3.22;;;2.60;;
46721;SDS011;32455;43.430;23.136;2023-11-22T16:32:07;2.75;;;2.17;;
46721;SDS011;32455;43.430;23.136;2023-11-22T16:34:52;2.45;;;2.25;;